Time;durP1;ratioP1;P1;durP2;ratioP2;P2;SDS_P1;SDS_P2;PMS_P1;PMS_P2;Temp;Humidity;BMP_temperature;BMP_pressure;BME280_temperature;BME280_humidity;BME280_pressure;Samples;Min_cycle;Max_cycle;Signal;HPM_P1;HPM_P2
2023/10/12 00:02:13;;;;;;;18.23;10.82;;;;;;;;;;5133884;28;20054;-61
2023/10/12 00:07:51;;;;;;;17.85;10.77;;;;;;;;;;5121594;28;20118;-71
2023/10/12 00:12:35;;;;;;;10.82;7.80;;;;;;;;;;5103417;28;20035;-70
2023/10/12 00:15:05;;;;;;;10.38;7.82;;;;;;;;;;5134697;28;20037;-70
2023/10/12 00:17:33;;;;;;;12.57;8.03;;;;;;;;;;5134849;28;20035;-70
2023/10/12 00:20:08;;;;;;;13.65;8.15;;;;;;;;;;5134362;28;20060;-70
2023/10/12 00:22:34;;;;;;;10.15;6.65;;;;;;;;;;5134954;28;20095;-60
2023/10/12 00:24:59;;;;;;;9.48;6.05;;;;;;;;;;5125116;28;20525;-60
2023/10/12 00:27:26;;;;;;;11.63;6.53;;;;;;;;;;5113896;28;20491;-60
2023/10/12 00:29:53;;;;;;;8.98;6.40;;;;;;;;;;5096108;28;20032;-59
2023/10/12 00:32:18;;;;;;;9.95;6.20;;;;;;;;;;5098403;28;20039;-67
2023/10/12 00:34:47;;;;;;;7.95;6.05;;;;;;;;;;5099844;28;20031;-60
2023/10/12 00:37:14;;;;;;;13.07;6.20;;;;;;;;;;5118154;28;20046;-60
2023/10/12 00:39:57;;;;;;;11.43;7.60;;;;;;;;;;5117933;28;20036;-59
2023/10/12 00:42:29;;;;;;;10.52;7.20;;;;;;;;;;5099400;28;20418;-60
2023/10/12 00:44:54;;;;;;;9.18;6.78;;;;;;;;;;5117853;28;20047;-67
2023/10/12 00:47:44;;;;;;;11.93;6.97;;;;;;;;;;5117720;28;20031;-60
2023/10/12 00:50:11;;;;;;;8.27;6.70;;;;;;;;;;5099318;28;20134;-59
2023/10/12 00:52:57;;;;;;;12.98;6.93;;;;;;;;;;5099501;28;20046;-59
2023/10/12 00:55:34;;;;;;;12.90;6.65;;;;;;;;;;5118028;28;20031;-58
2023/10/12 00:58:05;;;;;;;10.20;6.38;;;;;;;;;;5099354;28;20040;-58
2023/10/12 01:00:35;;;;;;;11.70;6.57;;;;;;;;;;5119172;27;20040;-58
2023/10/12 01:03:07;;;;;;;9.05;6.05;;;;;;;;;;5102767;27;20068;-58
2023/10/12 01:05:36;;;;;;;9.68;6.22;;;;;;;;;;5138311;27;20035;-58
2023/10/12 01:08:02;;;;;;;9.85;6.57;;;;;;;;;;5102144;27;20039;-58
2023/10/12 01:10:31;;;;;;;10.45;6.50;;;;;;;;;;5137733;27;20035;-67
2023/10/12 01:12:57;;;;;;;12.05;6.55;;;;;;;;;;5116937;27;20023;-68
2023/10/12 01:15:27;;;;;;;9.73;6.93;;;;;;;;;;5098897;28;20404;-69
2023/10/12 01:17:53;;;;;;;11.23;7.03;;;;;;;;;;5117220;28;20047;-68
2023/10/12 01:20:26;;;;;;;8.60;6.05;;;;;;;;;;5119451;27;20039;-69
2023/10/12 01:22:53;;;;;;;9.77;5.90;;;;;;;;;;5137635;27;20403;-68
2023/10/12 01:25:33;;;;;;;13.43;6.38;;;;;;;;;;5137762;27;20039;-68
2023/10/12 01:28:05;;;;;;;;;;;;;;;;;;5118059;28;20035;-68
2023/10/12 01:30:35;;;;;;;9.20;5.70;;;;;;;;;;5115824;28;19908;-68
2023/10/12 01:33:02;;;;;;;10.68;5.78;;;;;;;;;;5115328;28;20120;-68
2023/10/12 01:35:33;;;;;;;11.15;6.60;;;;;;;;;;5116051;27;20114;-60
2023/10/12 01:38:08;;;;;;;8.35;5.97;;;;;;;;;;5109616;28;20492;-59
2023/10/12 01:43:17;;;;;;;10.73;5.60;;;;;;;;;;5133916;27;20096;-59
2023/10/12 01:45:43;;;;;;;8.88;5.80;;;;;;;;;;5118579;27;20476;-59
2023/10/12 01:48:16;;;;;;;11.27;5.68;;;;;;;;;;5118606;27;20050;-59
2023/10/12 01:50:43;;;;;;;10.15;5.97;;;;;;;;;;5137289;27;20110;-59
2023/10/12 01:53:27;;;;;;;9.85;5.50;;;;;;;;;;5136944;27;20039;-59
2023/10/12 01:55:56;;;;;;;12.65;6.10;;;;;;;;;;5098228;28;20405;-67
2023/10/12 01:58:35;;;;;;;7.90;5.70;;;;;;;;;;5116384;28;20112;-67
2023/10/12 02:01:07;;;;;;;11.23;5.85;;;;;;;;;;5116124;28;20060;-59
2023/10/12 02:03:37;;;;;;;10.55;5.13;;;;;;;;;;5116524;28;20118;-58
2023/10/12 02:06:05;;;;;;;11.25;5.88;;;;;;;;;;5116394;28;20386;-59
2023/10/12 02:08:34;;;;;;;9.68;4.95;;;;;;;;;;5098036;28;20038;-59
2023/10/12 02:11:06;;;;;;;10.45;5.60;;;;;;;;;;5115680;28;20497;-58
2023/10/12 02:13:34;;;;;;;9.38;5.30;;;;;;;;;;5097520;28;20041;-58
2023/10/12 02:16:01;;;;;;;8.60;5.00;;;;;;;;;;5098070;28;20063;-58
2023/10/12 02:18:27;;;;;;;11.23;5.53;;;;;;;;;;5097773;28;20032;-58
2023/10/12 02:21:10;;;;;;;7.50;5.30;;;;;;;;;;5115983;28;20042;-67
2023/10/12 02:23:54;;;;;;;8.55;5.35;;;;;;;;;;5097684;28;20404;-67
2023/10/12 02:26:35;;;;;;;9.30;5.50;;;;;;;;;;5097559;28;20040;-66
2023/10/12 02:29:11;;;;;;;8.40;5.28;;;;;;;;;;5097591;28;20046;-66
2023/10/12 02:32:25;;;;;;;8.13;5.25;;;;;;;;;;5113364;27;20100;-67
2023/10/12 02:35:00;;;;;;;8.27;5.05;;;;;;;;;;5135954;27;20035;-60
2023/10/12 02:37:27;;;;;;;18.33;6.00;;;;;;;;;;5135846;27;20084;-60
2023/10/12 02:39:56;;;;;;;7.32;5.20;;;;;;;;;;5114306;28;20491;-59
2023/10/12 02:42:22;;;;;;;7.65;4.82;;;;;;;;;;5115777;28;20027;-69
2023/10/12 02:47:23;;;;;;;8.48;4.70;;;;;;;;;;5112195;28;20040;-60
2023/10/12 02:49:49;;;;;;;9.57;5.05;;;;;;;;;;5115165;28;20108;-59
2023/10/12 02:52:15;;;;;;;7.38;4.88;;;;;;;;;;5109612;27;20173;-69
2023/10/12 02:54:51;;;;;;;9.80;5.03;;;;;;;;;;5117098;27;20050;-69
2023/10/12 02:57:22;;;;;;;8.15;4.90;;;;;;;;;;5117533;27;20034;-68
2023/10/12 02:59:56;;;;;;;7.47;4.88;;;;;;;;;;5135783;27;20377;-59
2023/10/12 03:02:35;;;;;;;7.60;4.53;;;;;;;;;;5100316;27;20062;-67
2023/10/12 03:05:06;;;;;;;8.13;4.93;;;;;;;;;;5083308;28;20043;-67
2023/10/12 03:07:39;;;;;;;11.13;5.13;;;;;;;;;;5114933;28;20040;-67
2023/10/12 03:10:07;;;;;;;11.50;5.07;;;;;;;;;;5081318;27;20056;-67
2023/10/12 03:12:35;;;;;;;8.32;5.10;;;;;;;;;;5051569;28;20037;-68
2023/10/12 03:15:11;;;;;;;5.70;4.80;;;;;;;;;;5051774;28;20055;-59
2023/10/12 03:17:37;;;;;;;8.25;5.20;;;;;;;;;;5033837;28;20356;-59
2023/10/12 03:20:19;;;;;;;8.35;4.55;;;;;;;;;;5051320;28;20169;-59
2023/10/12 03:22:47;;;;;;;6.38;4.75;;;;;;;;;;5050923;28;20033;-59
2023/10/12 03:27:57;;;;;;;5.57;4.35;;;;;;;;;;5033785;28;20033;-66
2023/10/12 03:30:43;;;;;;;9.48;4.22;;;;;;;;;;5033613;28;20036;-67
2023/10/12 03:33:11;;;;;;;5.75;4.22;;;;;;;;;;5050754;28;20037;-59
2023/10/12 03:35:57;;;;;;;9.38;4.32;;;;;;;;;;5051382;28;20037;-59
2023/10/12 03:38:25;;;;;;;6.10;4.60;;;;;;;;;;5032959;28;20041;-65
2023/10/12 03:43:40;;;;;;;8.45;4.50;;;;;;;;;;5051401;28;20471;-66
2023/10/12 03:49:39;;;;;;;5.70;4.40;;;;;;;;;;5033283;28;20049;-66
2023/10/12 03:51:38;;;;;;;6.53;4.45;;;;;;;;;;5037085;28;20045;-66
2023/10/12 03:54:11;;;;;;;5.13;4.13;;;;;;;;;;5048296;28;20072;-66
2023/10/12 03:56:39;;;;;;;7.38;4.00;;;;;;;;;;5035101;28;20056;-66
2023/10/12 03:59:08;;;;;;;5.95;4.20;;;;;;;;;;5033882;28;20401;-66
2023/10/12 04:01:40;;;;;;;5.35;4.35;;;;;;;;;;5039252;28;20041;-66
2023/10/12 04:04:16;;;;;;;8.30;4.72;;;;;;;;;;5031100;28;20073;-66
2023/10/12 04:09:34;;;;;;;6.75;4.40;;;;;;;;;;5033623;28;20050;-67
2023/10/12 04:12:18;;;;;;;10.45;4.53;;;;;;;;;;5034408;28;20052;-59
2023/10/12 04:14:49;;;;;;;6.93;4.47;;;;;;;;;;5034141;28;20052;-59
2023/10/12 04:20:12;;;;;;;5.07;4.28;;;;;;;;;;5054024;28;20040;-68
2023/10/12 04:25:14;;;;;;;;;;;;;;;;;;5054234;28;20052;-59
2023/10/12 04:27:44;;;;;;;7.78;5.60;;;;;;;;;;5036326;28;19905;-59
2023/10/12 04:30:22;;;;;;;8.38;6.00;;;;;;;;;;5054303;28;20033;-66
2023/10/12 04:43:38;;;;;;;7.23;4.97;;;;;;;;;;5031764;28;20072;-60
2023/10/12 04:48:41;;;;;;;7.32;5.35;;;;;;;;;;5053581;28;20045;-69
2023/10/12 04:51:08;;;;;;;6.95;4.95;;;;;;;;;;5053574;28;20521;-60
2023/10/12 04:56:19;;;;;;;6.18;5.13;;;;;;;;;;5033733;28;20475;-60
2023/10/12 04:58:57;;;;;;;6.70;5.38;;;;;;;;;;5016207;28;20116;-60
2023/10/12 05:01:40;;;;;;;9.10;5.25;;;;;;;;;;5033755;28;20395;-60
2023/10/12 05:04:08;;;;;;;7.95;5.15;;;;;;;;;;5016545;28;20090;-60
2023/10/12 05:06:36;;;;;;;10.80;4.80;;;;;;;;;;5033960;28;20041;-61
2023/10/12 05:09:11;;;;;;;10.60;5.40;;;;;;;;;;5033172;28;20116;-60
2023/10/12 05:11:36;;;;;;;10.40;6.28;;;;;;;;;;5033631;28;20045;-60
2023/10/12 05:14:11;;;;;;;7.78;5.18;;;;;;;;;;5033673;28;20471;-60
2023/10/12 05:16:42;;;;;;;8.52;5.45;;;;;;;;;;5033379;28;20098;-71
2023/10/12 05:19:11;;;;;;;8.10;5.63;;;;;;;;;;5032437;28;20061;-64
2023/10/12 05:21:37;;;;;;;9.68;5.78;;;;;;;;;;5033663;28;20029;-65
2023/10/12 05:24:02;;;;;;;9.18;5.63;;;;;;;;;;5033689;28;20467;-72
2023/10/12 05:26:27;;;;;;;8.23;5.65;;;;;;;;;;5033185;28;20116;-72
2023/10/12 05:31:39;;;;;;;9.63;5.30;;;;;;;;;;5033277;28;20037;-71
2023/10/12 05:34:50;;;;;;;10.00;5.65;;;;;;;;;;5068257;27;20039;-72
2023/10/12 05:36:53;;;;;;;12.68;6.10;;;;;;;;;;5044802;28;20386;-71
2023/10/12 05:39:20;;;;;;;12.93;5.80;;;;;;;;;;5053192;28;20041;-72
2023/10/12 05:41:46;;;;;;;12.70;6.63;;;;;;;;;;5056379;27;20029;-72
2023/10/12 05:44:15;;;;;;;11.07;6.80;;;;;;;;;;5052982;28;20047;-65
2023/10/12 05:46:44;;;;;;;9.10;5.88;;;;;;;;;;5051884;28;20037;-65
2023/10/12 05:49:12;;;;;;;10.02;6.68;;;;;;;;;;5051081;28;20049;-64
2023/10/12 05:51:38;;;;;;;13.68;6.55;;;;;;;;;;5052309;28;20073;-64
2023/10/12 05:54:06;;;;;;;10.55;6.32;;;;;;;;;;5041163;28;20061;-64
2023/10/12 05:56:35;;;;;;;10.32;5.95;;;;;;;;;;5030321;28;20471;-64
2023/10/12 05:59:01;;;;;;;12.65;5.50;;;;;;;;;;5032387;28;20033;-64
2023/10/12 06:01:32;;;;;;;8.23;5.68;;;;;;;;;;5051166;28;20060;-64
2023/10/12 06:03:58;;;;;;;9.70;5.13;;;;;;;;;;5051099;28;20044;-64
2023/10/12 06:06:23;;;;;;;8.20;5.03;;;;;;;;;;5050703;28;20021;-64
2023/10/12 06:08:52;;;;;;;6.50;5.45;;;;;;;;;;5043200;28;20153;-64
2023/10/12 06:11:18;;;;;;;8.23;5.40;;;;;;;;;;5042734;28;20142;-65
2023/10/12 06:13:44;;;;;;;6.53;5.47;;;;;;;;;;5078797;27;20046;-65
2023/10/12 06:16:20;;;;;;;11.13;5.70;;;;;;;;;;5088577;27;20034;-71
2023/10/12 06:18:46;;;;;;;14.35;5.70;;;;;;;;;;5041349;28;20383;-64
2023/10/12 06:21:19;;;;;;;8.40;5.25;;;;;;;;;;5047035;28;20094;-65
2023/10/12 06:23:49;;;;;;;8.18;5.05;;;;;;;;;;5040087;28;20044;-65
2023/10/12 06:26:30;;;;;;;9.95;5.97;;;;;;;;;;5042146;28;20490;-64
2023/10/12 06:28:57;;;;;;;9.80;5.38;;;;;;;;;;5040704;28;20490;-64
2023/10/12 06:31:24;;;;;;;6.88;5.22;;;;;;;;;;5040192;28;20044;-65
2023/10/12 06:33:50;;;;;;;7.03;4.45;;;;;;;;;;5038990;28;20406;-72
2023/10/12 06:36:22;;;;;;;6.75;4.40;;;;;;;;;;5046638;28;20041;-72
2023/10/12 06:44:12;;;;;;;8.77;4.50;;;;;;;;;;5034467;28;20044;-71
2023/10/12 06:46:44;;;;;;;7.30;4.15;;;;;;;;;;5037188;28;20097;-72
2023/10/12 06:49:18;;;;;;;9.00;4.72;;;;;;;;;;5042504;28;20037;-71
2023/10/12 06:51:44;;;;;;;8.75;4.15;;;;;;;;;;5036644;28;20370;-65
2023/10/12 06:54:19;;;;;;;5.63;4.35;;;;;;;;;;5047861;28;20459;-65
2023/10/12 06:56:50;;;;;;;6.13;4.38;;;;;;;;;;5051376;28;20041;-65
2023/10/12 06:59:27;;;;;;;10.50;4.32;;;;;;;;;;5052067;28;20094;-65
2023/10/12 07:01:57;;;;;;;7.30;4.72;;;;;;;;;;5022882;28;20052;-66
2023/10/12 07:04:38;;;;;;;7.72;4.57;;;;;;;;;;5031373;28;20138;-65
2023/10/12 07:07:11;;;;;;;8.38;5.05;;;;;;;;;;5031776;28;20057;-71
2023/10/12 07:09:40;;;;;;;7.85;4.18;;;;;;;;;;5031072;28;20053;-71
2023/10/12 07:12:12;;;;;;;7.70;3.80;;;;;;;;;;5031307;28;20125;-71
2023/10/12 07:14:38;;;;;;;10.65;4.45;;;;;;;;;;5013315;28;20098;-71
2023/10/12 07:17:04;;;;;;;7.38;4.85;;;;;;;;;;5041058;28;20105;-71
2023/10/12 07:19:30;;;;;;;8.75;4.80;;;;;;;;;;5050715;28;20491;-71
2023/10/12 07:21:55;;;;;;;10.07;5.10;;;;;;;;;;5034525;28;20102;-72
2023/10/12 07:24:26;;;;;;;8.98;4.45;;;;;;;;;;5030678;28;20041;-71
2023/10/12 07:26:51;;;;;;;8.77;4.45;;;;;;;;;;5030754;28;20067;-71
2023/10/12 07:29:35;;;;;;;8.05;4.80;;;;;;;;;;5030433;28;20045;-71
2023/10/12 07:32:08;;;;;;;8.80;4.90;;;;;;;;;;5030242;28;20059;-71
2023/10/12 07:34:34;;;;;;;8.18;4.88;;;;;;;;;;5009998;28;20052;-71
2023/10/12 07:37:00;;;;;;;9.90;4.38;;;;;;;;;;5010325;28;20032;-71
2023/10/12 07:39:42;;;;;;;7.32;4.70;;;;;;;;;;5010537;28;20116;-71
2023/10/12 07:42:12;;;;;;;7.88;4.57;;;;;;;;;;5009913;28;20365;-72
2023/10/12 07:44:41;;;;;;;6.27;3.97;;;;;;;;;;5011114;28;20353;-71
2023/10/12 07:49:57;;;;;;;9.05;3.90;;;;;;;;;;4990121;28;20487;-65
2023/10/12 07:52:23;;;;;;;7.10;3.63;;;;;;;;;;5011279;28;20049;-65
2023/10/12 07:57:17;;;;;;;8.57;4.22;;;;;;;;;;5011043;28;20376;-65
2023/10/12 07:59:59;;;;;;;8.95;4.13;;;;;;;;;;5011159;28;20038;-65
2023/10/12 08:10:56;;;;;;;7.55;3.00;;;;;;;;;;5041045;28;20060;-65
2023/10/12 08:21:16;;;;;;;2.63;2.20;;;;;;;;;;5050392;28;20037;-65
2023/10/12 08:23:42;;;;;;;2.30;2.10;;;;;;;;;;5050344;28;20094;-71
2023/10/12 08:26:34;;;;;;;9.65;3.50;;;;;;;;;;5050239;28;20037;-71
2023/10/12 08:28:56;;;;;;;6.97;3.38;;;;;;;;;;5050362;28;20039;-71
2023/10/12 08:31:27;;;;;;;5.28;3.42;;;;;;;;;;5032358;28;20048;-71
2023/10/12 08:34:00;;;;;;;6.25;3.25;;;;;;;;;;5050690;28;20041;-65
2023/10/12 08:36:29;;;;;;;6.45;2.97;;;;;;;;;;5033200;28;20443;-65
2023/10/12 08:38:55;;;;;;;6.47;3.05;;;;;;;;;;5030033;28;20057;-65
2023/10/12 08:43:59;;;;;;;5.00;2.45;;;;;;;;;;5030075;28;20041;-65
2023/10/12 08:52:18;;;;;;;3.67;2.30;;;;;;;;;;5021507;28;20120;-71
2023/10/12 08:54:51;;;;;;;3.55;1.90;;;;;;;;;;5033883;28;20037;-71
2023/10/12 08:57:24;;;;;;;6.07;3.25;;;;;;;;;;5033631;28;20394;-71
2023/10/12 09:02:52;;;;;;;3.00;2.50;;;;;;;;;;5041270;28;20124;-71
2023/10/12 09:05:28;;;;;;;3.58;2.42;;;;;;;;;;5033272;28;20029;-65
2023/10/12 09:13:28;;;;;;;7.28;2.75;;;;;;;;;;5035697;28;20067;-65
2023/10/12 09:15:57;;;;;;;4.50;2.55;;;;;;;;;;5053452;28;20104;-65
2023/10/12 09:18:24;;;;;;;5.78;3.03;;;;;;;;;;5048162;28;20038;-65
2023/10/12 09:26:32;;;;;;;6.65;2.78;;;;;;;;;;4943999;28;20526;-65
2023/10/12 09:29:08;;;;;;;0.95;0.95;;;;;;;;;;5019405;27;20036;-65
2023/10/12 09:36:43;;;;;;;4.70;2.45;;;;;;;;;;5032965;28;20046;-71
2023/10/12 09:39:12;;;;;;;5.03;2.42;;;;;;;;;;4996350;28;20034;-71
2023/10/12 09:41:38;;;;;;;5.35;3.08;;;;;;;;;;5028097;28;20037;-71
2023/10/12 09:44:05;;;;;;;3.75;2.78;;;;;;;;;;5036925;27;20037;-74
2023/10/12 09:46:34;;;;;;;7.60;2.67;;;;;;;;;;5126052;27;20472;-74
2023/10/12 09:49:06;;;;;;;6.88;3.33;;;;;;;;;;5137503;27;20085;-74
2023/10/12 09:51:45;;;;;;;6.25;2.45;;;;;;;;;;5137154;27;20039;-74
2023/10/12 09:54:16;;;;;;;8.75;3.63;;;;;;;;;;5137319;27;20035;-74
2023/10/12 09:56:46;;;;;;;7.65;3.53;;;;;;;;;;5066641;27;20112;-74
2023/10/12 09:59:18;;;;;;;5.03;2.90;;;;;;;;;;5033049;28;20097;-73
2023/10/12 10:01:50;;;;;;;3.65;2.80;;;;;;;;;;5032577;28;20524;-74
2023/10/12 10:07:08;;;;;;;7.47;2.60;;;;;;;;;;5029312;28;20040;-74
2023/10/12 10:09:38;;;;;;;6.22;3.60;;;;;;;;;;5032391;28;20076;-74
2023/10/12 10:12:08;;;;;;;5.35;2.03;;;;;;;;;;5028058;28;20455;-74
2023/10/12 10:14:37;;;;;;;;;;;;;;;;;;5012852;28;20105;-74
2023/10/12 10:17:07;;;;;;;6.63;3.42;;;;;;;;;;5013096;28;20343;-74
2023/10/12 10:19:33;;;;;;;3.17;2.05;;;;;;;;;;5011269;28;20038;-74
2023/10/12 10:22:33;;;;;;;4.82;2.95;;;;;;;;;;5014578;28;20095;-74
2023/10/12 10:24:57;;;;;;;6.22;3.80;;;;;;;;;;5031859;28;20495;-74
2023/10/12 10:27:35;;;;;;;10.02;4.00;;;;;;;;;;5024026;28;20040;-74
2023/10/12 10:30:23;;;;;;;11.70;4.00;;;;;;;;;;5012666;28;20044;-74
2023/10/12 10:33:06;;;;;;;6.90;3.30;;;;;;;;;;5011359;28;20121;-74
2023/10/12 10:36:25;;;;;;;13.60;4.95;;;;;;;;;;5012483;28;20042;-74
2023/10/12 10:38:54;;;;;;;8.77;3.70;;;;;;;;;;5032914;28;20132;-74
2023/10/12 10:41:37;;;;;;;7.45;4.00;;;;;;;;;;5014033;28;20034;-74
2023/10/12 10:44:03;;;;;;;4.53;2.13;;;;;;;;;;5013187;28;20061;-74
2023/10/12 10:46:28;;;;;;;7.63;3.75;;;;;;;;;;5027651;28;20475;-74
2023/10/12 10:48:54;;;;;;;8.38;3.80;;;;;;;;;;5012577;28;20367;-74
2023/10/12 10:51:20;;;;;;;8.48;3.92;;;;;;;;;;5020236;28;20083;-74
2023/10/12 10:53:51;;;;;;;6.57;3.28;;;;;;;;;;5031887;28;20447;-74
2023/10/12 10:56:32;;;;;;;5.05;3.15;;;;;;;;;;5031883;28;20407;-74
2023/10/12 10:58:59;;;;;;;8.25;3.63;;;;;;;;;;5012271;28;20426;-74
2023/10/12 11:01:26;;;;;;;8.13;3.63;;;;;;;;;;5011981;28;20053;-75
2023/10/12 11:03:52;;;;;;;10.32;3.70;;;;;;;;;;5012232;28;20034;-74
2023/10/12 11:06:24;;;;;;;4.18;3.17;;;;;;;;;;5012094;28;20121;-74
2023/10/12 11:09:09;;;;;;;9.85;4.00;;;;;;;;;;5031879;28;20387;-73
2023/10/12 11:11:37;;;;;;;4.80;3.55;;;;;;;;;;5014250;28;20057;-74
2023/10/12 11:14:10;;;;;;;6.00;3.25;;;;;;;;;;5031701;28;20114;-74
2023/10/12 11:16:36;;;;;;;5.88;3.30;;;;;;;;;;5030176;28;20029;-64
2023/10/12 11:19:03;;;;;;;6.20;3.60;;;;;;;;;;5031552;28;20443;-65
2023/10/12 11:21:29;;;;;;;8.70;3.67;;;;;;;;;;5031213;28;20094;-72
2023/10/12 11:24:09;;;;;;;8.88;3.80;;;;;;;;;;5014044;28;20471;-72
2023/10/12 11:26:47;;;;;;;6.50;3.65;;;;;;;;;;5030978;28;20490;-72
2023/10/12 11:29:12;;;;;;;6.03;3.08;;;;;;;;;;5031116;28;20042;-72
2023/10/12 11:31:38;;;;;;;4.97;3.90;;;;;;;;;;5031673;28;20072;-72
2023/10/12 11:34:12;;;;;;;7.97;4.10;;;;;;;;;;5031118;28;20113;-72
2023/10/12 11:36:37;;;;;;;6.78;3.58;;;;;;;;;;5031305;28;20079;-72
2023/10/12 11:39:04;;;;;;;9.27;3.72;;;;;;;;;;5031453;28;20463;-72
2023/10/12 11:41:29;;;;;;;6.50;3.65;;;;;;;;;;5030963;28;20037;-72
2023/10/12 11:43:57;;;;;;;6.82;3.47;;;;;;;;;;5013917;28;20060;-72
2023/10/12 11:46:23;;;;;;;8.65;3.53;;;;;;;;;;5031355;28;20094;-72
2023/10/12 11:49:05;;;;;;;8.52;4.05;;;;;;;;;;5030768;28;20410;-72
2023/10/12 11:51:31;;;;;;;8.35;3.92;;;;;;;;;;5031029;28;20479;-72
2023/10/12 11:53:57;;;;;;;6.13;3.88;;;;;;;;;;5031086;28;20026;-72
2023/10/12 11:56:26;;;;;;;7.82;3.67;;;;;;;;;;5021578;22;20535;-64
2023/10/12 11:58:54;;;;;;;8.35;3.80;;;;;;;;;;5090201;28;20148;-71
2023/10/12 12:01:21;;;;;;;9.50;3.97;;;;;;;;;;5094210;28;20052;-72
2023/10/12 12:03:48;;;;;;;8.32;4.13;;;;;;;;;;5109820;28;20040;-72
2023/10/12 12:06:21;;;;;;;10.85;4.30;;;;;;;;;;5094136;28;20039;-72
2023/10/12 12:08:51;;;;;;;5.50;3.85;;;;;;;;;;5093003;28;20075;-72
2023/10/12 12:11:19;;;;;;;7.63;4.07;;;;;;;;;;5092813;28;20128;-72
2023/10/12 12:13:52;;;;;;;8.73;4.10;;;;;;;;;;5092011;28;20048;-73
2023/10/12 12:16:20;;;;;;;8.20;3.88;;;;;;;;;;5092160;28;20029;-72
2023/10/12 12:18:52;;;;;;;8.43;3.22;;;;;;;;;;5092921;28;20040;-72
2023/10/12 12:21:29;;;;;;;5.72;3.45;;;;;;;;;;5108919;28;20036;-72
2023/10/12 12:24:21;;;;;;;6.85;3.53;;;;;;;;;;5093246;28;20032;-72
2023/10/12 12:26:49;;;;;;;7.35;3.75;;;;;;;;;;5093388;28;20040;-72
2023/10/12 12:29:16;;;;;;;5.18;3.55;;;;;;;;;;5092785;28;20037;-72
2023/10/12 12:31:42;;;;;;;7.55;3.40;;;;;;;;;;5077690;28;20037;-72
2023/10/12 12:34:08;;;;;;;5.45;3.67;;;;;;;;;;5089931;28;20040;-71
2023/10/12 12:36:34;;;;;;;5.80;3.00;;;;;;;;;;5097746;28;20040;-72
2023/10/12 12:39:00;;;;;;;6.88;3.50;;;;;;;;;;5097527;28;20061;-72
2023/10/12 12:41:30;;;;;;;6.57;3.72;;;;;;;;;;5094462;28;20119;-72
2023/10/12 12:43:58;;;;;;;6.68;3.25;;;;;;;;;;5096942;28;20036;-72
2023/10/12 12:46:24;;;;;;;7.10;3.80;;;;;;;;;;5085467;28;20036;-65
2023/10/12 12:48:50;;;;;;;6.88;4.05;;;;;;;;;;5086527;28;20059;-65
2023/10/12 12:51:17;;;;;;;6.30;3.30;;;;;;;;;;5066915;28;20075;-65
2023/10/12 12:53:46;;;;;;;6.35;3.20;;;;;;;;;;5085354;28;20123;-65
2023/10/12 12:56:14;;;;;;;5.38;3.58;;;;;;;;;;5066647;28;20098;-65
2023/10/12 12:58:46;;;;;;;6.40;3.55;;;;;;;;;;5085310;28;20051;-65
2023/10/12 13:01:12;;;;;;;7.35;3.45;;;;;;;;;;5096296;28;20469;-64
2023/10/12 13:03:37;;;;;;;5.88;3.33;;;;;;;;;;5112249;28;20051;-65
2023/10/12 13:06:07;;;;;;;3.97;2.85;;;;;;;;;;5078309;28;20040;-65
2023/10/12 13:08:33;;;;;;;6.90;2.75;;;;;;;;;;5096124;28;20397;-65
2023/10/12 13:10:59;;;;;;;4.60;2.80;;;;;;;;;;5078125;28;20040;-65
2023/10/12 13:13:24;;;;;;;6.07;3.03;;;;;;;;;;5095864;28;20043;-65
2023/10/12 13:15:50;;;;;;;6.90;2.80;;;;;;;;;;5095947;28;20549;-65
2023/10/12 13:18:15;;;;;;;4.75;2.70;;;;;;;;;;5078065;28;20122;-65
2023/10/12 13:20:46;;;;;;;5.25;3.05;;;;;;;;;;5097087;28;20035;-65
2023/10/12 13:23:13;;;;;;;7.55;3.58;;;;;;;;;;5095624;28;20085;-65
2023/10/12 13:25:39;;;;;;;10.27;3.88;;;;;;;;;;5077862;28;20036;-65
2023/10/12 13:28:04;;;;;;;7.57;3.63;;;;;;;;;;5095725;28;20031;-65
2023/10/12 13:30:30;;;;;;;6.05;3.67;;;;;;;;;;5095715;28;20115;-65
2023/10/12 13:32:59;;;;;;;5.88;3.58;;;;;;;;;;5095787;28;20136;-65
2023/10/12 13:38:07;;;;;;;;;;;;;;;;;;5096449;28;20036;-65
2023/10/12 13:40:35;;;;;;;4.43;3.38;;;;;;;;;;5094635;28;19919;-65
2023/10/12 13:43:18;;;;;;;7.35;3.78;;;;;;;;;;5095472;28;20127;-65
2023/10/12 13:45:47;;;;;;;8.20;3.40;;;;;;;;;;5076671;28;20036;-71
2023/10/12 13:48:13;;;;;;;7.40;3.95;;;;;;;;;;5095401;28;20050;-72
2023/10/12 13:50:39;;;;;;;5.32;3.70;;;;;;;;;;5095290;28;20131;-72
2023/10/12 13:53:05;;;;;;;8.90;3.95;;;;;;;;;;5095932;28;20111;-72
2023/10/12 13:55:31;;;;;;;8.10;4.13;;;;;;;;;;5095876;28;20378;-72
2023/10/12 13:57:57;;;;;;;8.57;4.45;;;;;;;;;;5096086;28;20128;-71
2023/10/12 14:00:26;;;;;;;8.63;4.68;;;;;;;;;;5078034;28;20046;-71
2023/10/12 14:02:58;;;;;;;10.48;5.00;;;;;;;;;;5096134;28;20028;-72
2023/10/12 14:05:27;;;;;;;9.10;3.83;;;;;;;;;;5077596;28;20044;-65
2023/10/12 14:07:59;;;;;;;8.00;3.78;;;;;;;;;;5111415;28;20048;-65
2023/10/12 14:10:26;;;;;;;6.10;4.38;;;;;;;;;;5095980;28;20085;-65
2023/10/12 14:12:53;;;;;;;6.10;4.07;;;;;;;;;;5096188;28;20470;-65
2023/10/12 14:15:22;;;;;;;5.40;4.28;;;;;;;;;;5095311;28;20119;-65
2023/10/12 14:17:54;;;;;;;9.00;4.35;;;;;;;;;;5077721;28;20036;-64
2023/10/12 14:20:20;;;;;;;9.65;4.90;;;;;;;;;;5095331;28;20032;-64
2023/10/12 14:22:46;;;;;;;7.70;4.20;;;;;;;;;;5095885;28;20040;-65
2023/10/12 14:25:17;;;;;;;8.13;4.28;;;;;;;;;;5077673;28;20162;-65
2023/10/12 14:27:43;;;;;;;10.48;4.95;;;;;;;;;;5077007;28;20043;-65
2023/10/12 14:30:15;;;;;;;7.25;4.78;;;;;;;;;;5083061;28;20037;-65
2023/10/12 14:32:41;;;;;;;6.20;5.07;;;;;;;;;;5077730;28;20036;-65
2023/10/12 14:35:07;;;;;;;8.05;5.25;;;;;;;;;;5092903;28;20370;-70
2023/10/12 14:37:36;;;;;;;8.32;5.18;;;;;;;;;;5095182;28;20123;-73
2023/10/12 14:40:06;;;;;;;7.50;4.88;;;;;;;;;;5095346;28;20044;-72
2023/10/12 14:42:36;;;;;;;11.77;5.63;;;;;;;;;;5093693;28;20081;-72
2023/10/12 14:45:06;;;;;;;10.07;6.00;;;;;;;;;;5077230;28;20598;-72
2023/10/12 14:47:35;;;;;;;9.10;5.47;;;;;;;;;;5077320;28;20127;-70
2023/10/12 14:50:03;;;;;;;9.45;5.72;;;;;;;;;;5090531;28;20029;-63
2023/10/12 14:52:38;;;;;;;11.30;6.10;;;;;;;;;;5094517;28;20043;-71
2023/10/12 14:55:12;;;;;;;12.05;5.70;;;;;;;;;;5095070;28;20079;-71
2023/10/12 14:57:38;;;;;;;14.52;6.22;;;;;;;;;;5094388;28;20036;-74
2023/10/12 15:00:09;;;;;;;12.10;6.88;;;;;;;;;;5088011;28;20524;-74
2023/10/12 15:02:36;;;;;;;8.65;6.15;;;;;;;;;;5094171;28;20512;-74
2023/10/12 15:05:05;;;;;;;13.55;6.88;;;;;;;;;;5109960;28;20028;-74
2023/10/12 15:07:31;;;;;;;9.13;6.65;;;;;;;;;;5094613;28;20040;-74
2023/10/12 15:09:58;;;;;;;10.15;6.70;;;;;;;;;;5094112;28;20571;-74
2023/10/12 15:12:23;;;;;;;16.55;8.38;;;;;;;;;;5094919;28;20035;-74
2023/10/12 15:14:50;;;;;;;12.80;7.20;;;;;;;;;;5094624;28;20405;-72
2023/10/12 15:17:19;;;;;;;10.43;6.70;;;;;;;;;;5094864;28;20036;-73
2023/10/12 15:19:44;;;;;;;11.93;7.00;;;;;;;;;;5084427;28;20493;-73
2023/10/12 15:22:12;;;;;;;12.63;6.93;;;;;;;;;;5092631;28;20111;-73
2023/10/12 15:24:45;;;;;;;11.80;6.57;;;;;;;;;;5075359;28;20040;-77
2023/10/12 15:27:11;;;;;;;12.93;7.07;;;;;;;;;;5058223;28;20043;-74
2023/10/12 15:29:37;;;;;;;13.73;7.68;;;;;;;;;;5092660;28;20039;-76
2023/10/12 15:32:03;;;;;;;16.90;7.32;;;;;;;;;;5093251;28;20073;-76
2023/10/12 15:34:33;;;;;;;13.18;8.02;;;;;;;;;;5074350;28;20432;-74
2023/10/12 15:37:01;;;;;;;16.50;8.18;;;;;;;;;;5104822;28;20029;-74
2023/10/12 15:39:27;;;;;;;13.48;6.88;;;;;;;;;;5086544;28;20028;-65
2023/10/12 15:41:53;;;;;;;13.00;7.63;;;;;;;;;;5092651;28;20473;-65
2023/10/12 15:44:18;;;;;;;12.93;7.30;;;;;;;;;;5084096;28;20052;-74
2023/10/12 15:46:44;;;;;;;15.73;7.93;;;;;;;;;;5063298;28;20040;-65
2023/10/12 15:49:10;;;;;;;16.92;7.95;;;;;;;;;;5097448;28;20049;-66
2023/10/12 15:51:35;;;;;;;14.48;9.18;;;;;;;;;;5082204;28;20040;-65
2023/10/12 15:54:05;;;;;;;15.35;8.60;;;;;;;;;;5081114;28;20480;-66
2023/10/12 15:56:31;;;;;;;14.70;8.63;;;;;;;;;;5082196;28;20115;-66
2023/10/12 15:58:57;;;;;;;15.75;9.18;;;;;;;;;;5077956;28;20059;-74
2023/10/12 16:01:22;;;;;;;15.57;10.13;;;;;;;;;;5054728;28;20497;-75
2023/10/12 16:03:48;;;;;;;19.38;11.15;;;;;;;;;;5079161;28;20058;-74
2023/10/12 16:06:14;;;;;;;18.35;10.45;;;;;;;;;;5079648;28;20178;-75
2023/10/12 16:08:39;;;;;;;15.25;10.73;;;;;;;;;;5079401;28;20036;-66
2023/10/12 16:11:05;;;;;;;17.90;10.73;;;;;;;;;;5080329;28;20543;-76
2023/10/12 16:13:33;;;;;;;17.73;10.38;;;;;;;;;;5079835;28;20131;-76
2023/10/12 16:16:11;;;;;;;16.33;10.20;;;;;;;;;;5080556;28;20111;-75
2023/10/12 16:18:37;;;;;;;16.02;9.13;;;;;;;;;;5061247;28;20501;-72
2023/10/12 16:21:12;;;;;;;16.13;8.52;;;;;;;;;;5079301;28;20056;-72
2023/10/12 16:23:38;;;;;;;14.68;7.38;;;;;;;;;;5061406;28;20033;-72
2023/10/12 16:26:07;;;;;;;16.20;9.15;;;;;;;;;;5061330;28;20058;-72
2023/10/12 16:28:33;;;;;;;13.82;9.35;;;;;;;;;;5068797;28;20069;-72
2023/10/12 16:31:01;;;;;;;14.38;8.50;;;;;;;;;;5099301;28;20032;-72
2023/10/12 16:33:26;;;;;;;10.80;7.65;;;;;;;;;;5081175;28;20370;-71
2023/10/12 16:35:52;;;;;;;18.45;10.73;;;;;;;;;;5081261;28;20048;-72
2023/10/12 16:38:17;;;;;;;18.20;9.30;;;;;;;;;;5081113;28;20040;-72
2023/10/12 16:40:46;;;;;;;17.45;9.57;;;;;;;;;;5080661;28;20081;-71
2023/10/12 16:43:14;;;;;;;14.05;7.78;;;;;;;;;;5099709;28;20497;-71
2023/10/12 16:45:40;;;;;;;14.70;8.50;;;;;;;;;;5115277;28;20435;-71